createdAt,value
2019-02-22T00:00:57.551Z,11.62
2019-02-22T00:01:57.477Z,11.39
2019-02-22T00:02:57.419Z,11.49
2019-02-22T00:03:57.344Z,11.46
2019-02-22T00:04:57.276Z,11.42
2019-02-22T00:05:57.201Z,11.36
2019-02-22T00:06:57.145Z,11.27
2019-02-22T00:07:57.042Z,11.24
2019-02-22T00:08:56.967Z,11.32
2019-02-22T00:09:56.895Z,11.21
2019-02-22T00:10:56.859Z,11.17
2019-02-22T00:11:56.832Z,11.09
2019-02-22T00:12:56.678Z,11.14
2019-02-22T00:13:56.611Z,11.10
2019-02-22T00:14:56.541Z,11.11
2019-02-22T00:15:56.560Z,11.09
2019-02-22T00:16:56.396Z,11.10
2019-02-22T00:17:56.330Z,11.11
2019-02-22T00:18:56.241Z,11.11
2019-02-22T00:19:56.170Z,11.19
2019-02-22T00:20:56.094Z,11.17
2019-02-22T00:21:56.062Z,11.15
2019-02-22T00:22:55.960Z,11.18
2019-02-22T00:23:55.890Z,11.17
2019-02-22T00:24:55.814Z,11.28
2019-02-22T00:25:55.748Z,11.32
2019-02-22T00:26:55.658Z,11.43
2019-02-22T00:27:55.583Z,11.46
2019-02-22T00:28:55.531Z,11.43
2019-02-22T00:29:55.477Z,11.47
2019-02-22T00:30:55.367Z,11.57
2019-02-22T00:31:55.293Z,11.47
2019-02-22T00:32:55.225Z,11.43
2019-02-22T00:33:55.151Z,11.51
2019-02-22T00:34:55.131Z,11.54
2019-02-22T00:35:55.108Z,11.58
2019-02-22T00:36:54.958Z,11.58
2019-02-22T00:37:54.853Z,11.64
2019-02-22T00:38:54.799Z,11.65
2019-02-22T00:39:54.741Z,11.61
2019-02-22T00:40:54.648Z,11.65
2019-02-22T00:41:54.577Z,11.75
2019-02-22T00:42:54.500Z,11.64
2019-02-22T00:43:54.423Z,11.70
2019-02-22T00:44:54.359Z,11.65
2019-02-22T00:45:54.285Z,11.72
2019-02-22T00:46:54.198Z,11.65
2019-02-22T00:47:54.127Z,11.62
2019-02-22T00:48:54.057Z,11.62
2019-02-22T00:49:53.981Z,11.67
2019-02-22T00:50:53.919Z,11.64
2019-02-22T00:51:53.843Z,11.58
2019-02-22T00:52:53.772Z,11.58
2019-02-22T00:53:53.700Z,11.55
2019-02-22T00:54:53.623Z,11.52
2019-02-22T00:55:53.555Z,11.57
2019-02-22T00:56:53.470Z,11.54
2019-02-22T00:57:53.396Z,11.52
2019-02-22T00:58:53.337Z,11.54
2019-02-22T00:59:53.262Z,11.60
2019-02-22T01:00:53.177Z,11.57
2019-02-22T01:01:53.107Z,11.60
2019-02-22T01:02:53.053Z,11.46
2019-02-22T01:03:52.993Z,11.36
2019-02-22T01:04:52.902Z,10.97
2019-02-22T01:05:52.828Z,10.84
2019-02-22T01:06:52.742Z,10.68
2019-02-22T01:07:52.722Z,10.67
2019-02-22T01:08:52.607Z,10.82
2019-02-22T01:09:52.521Z,10.84
2019-02-22T01:10:52.456Z,10.79
2019-02-22T01:11:52.384Z,10.86
2019-02-22T01:12:52.318Z,10.88
2019-02-22T01:13:52.241Z,10.91
2019-02-22T01:14:52.155Z,10.92
2019-02-22T01:15:52.083Z,10.92
2019-02-22T01:16:52.026Z,10.97
2019-02-22T01:17:51.946Z,11.09
2019-02-22T01:18:51.873Z,11.10
2019-02-22T01:19:51.788Z,11.17
2019-02-22T01:20:54.603Z,11.18
2019-02-22T01:21:51.645Z,11.27
2019-02-22T01:22:51.589Z,11.24
2019-02-22T01:23:51.509Z,11.22
2019-02-22T01:24:51.436Z,11.27
2019-02-22T01:25:51.365Z,11.25
2019-02-22T01:26:51.279Z,11.32
2019-02-22T01:27:51.203Z,11.24
2019-02-22T01:28:51.134Z,11.36
2019-02-22T01:29:51.053Z,11.40
2019-02-22T01:30:50.996Z,11.27
2019-02-22T01:31:50.924Z,11.25
2019-02-22T01:32:50.841Z,11.28
2019-02-22T01:33:50.770Z,11.36
2019-02-22T01:34:50.727Z,11.24
2019-02-22T01:35:50.635Z,11.35
2019-02-22T01:36:50.554Z,11.32
2019-02-22T01:37:50.488Z,11.24
2019-02-22T01:38:50.397Z,11.21
2019-02-22T01:39:50.333Z,11.25
2019-02-22T01:40:50.264Z,11.19
2019-02-22T01:41:50.197Z,11.29
2019-02-22T01:42:50.113Z,11.15
2019-02-22T01:43:50.035Z,11.11
2019-02-22T01:44:49.966Z,10.96
2019-02-22T01:45:49.891Z,10.97
2019-02-22T01:46:49.827Z,10.99
2019-02-22T01:47:49.752Z,10.92
2019-02-22T01:48:49.670Z,10.88
2019-02-22T01:49:49.591Z,10.96
2019-02-22T01:50:49.538Z,11.02
2019-02-22T01:51:49.465Z,10.86
2019-02-22T01:52:49.388Z,10.88
2019-02-22T01:53:49.310Z,10.92
2019-02-22T01:54:49.231Z,10.86
2019-02-22T01:55:49.165Z,10.74
2019-02-22T01:56:49.081Z,10.84
2019-02-22T01:57:49.015Z,10.68
2019-02-22T01:58:49.158Z,10.70
2019-02-22T01:59:48.882Z,10.53
2019-02-22T02:00:48.806Z,10.52
2019-02-22T02:01:48.752Z,10.47
2019-02-22T02:02:48.649Z,10.55
2019-02-22T02:03:48.567Z,10.53
2019-02-22T02:04:48.507Z,10.42
2019-02-22T02:05:48.432Z,10.53
2019-02-22T02:06:48.349Z,10.47
2019-02-22T02:07:48.276Z,10.44
2019-02-22T02:08:48.205Z,10.56
2019-02-22T02:09:48.129Z,10.56
2019-02-22T02:10:54.245Z,10.63
2019-02-22T02:11:47.998Z,10.53
2019-02-22T02:12:47.930Z,10.56
2019-02-22T02:13:47.858Z,10.63
2019-02-22T02:14:47.759Z,10.63
2019-02-22T02:15:47.689Z,10.61
2019-02-22T02:16:47.618Z,10.66
2019-02-22T02:17:47.541Z,10.70
2019-02-22T02:18:47.477Z,10.68
2019-02-22T02:19:47.403Z,10.71
2019-02-22T02:20:47.329Z,10.73
2019-02-22T02:21:47.278Z,10.68
2019-02-22T02:22:47.186Z,10.66
2019-02-22T02:23:47.115Z,10.66
2019-02-22T02:24:47.039Z,10.63
2019-02-22T02:25:46.970Z,10.53
2019-02-22T02:26:46.881Z,10.52
2019-02-22T02:27:46.807Z,10.51
2019-02-22T02:28:46.733Z,10.64
2019-02-22T02:29:46.661Z,10.45
2019-02-22T02:30:46.599Z,10.60
2019-02-22T02:31:46.524Z,10.42
2019-02-22T02:32:46.462Z,10.38
2019-02-22T02:33:46.378Z,10.48
2019-02-22T02:34:46.293Z,10.47
2019-02-22T02:35:46.221Z,10.44
2019-02-22T02:36:46.159Z,10.42
2019-02-22T02:37:46.090Z,10.30
2019-02-22T02:38:45.997Z,10.40
2019-02-22T02:39:45.932Z,10.29
2019-02-22T02:40:45.854Z,10.25
2019-02-22T02:41:45.784Z,10.14
2019-02-22T02:42:45.718Z,10.20
2019-02-22T02:43:45.641Z,10.17
2019-02-22T02:44:45.555Z,9.99
2019-02-22T02:45:45.481Z,9.99
2019-02-22T02:46:45.432Z,10.04
2019-02-22T02:47:45.350Z,9.96
2019-02-22T02:48:45.275Z,10.02
2019-02-22T02:49:45.204Z,9.96
2019-02-22T02:50:45.113Z,9.97
2019-02-22T02:51:45.043Z,9.93
2019-02-22T02:52:44.980Z,9.79
2019-02-22T02:53:44.910Z,9.93
2019-02-22T02:54:44.817Z,9.90
2019-02-22T02:55:44.766Z,9.90
2019-02-22T02:56:46.290Z,9.90
2019-02-22T02:57:44.597Z,9.89
2019-02-22T02:58:44.539Z,9.87
2019-02-22T02:59:44.458Z,9.87
2019-02-22T03:00:44.412Z,9.89
2019-02-22T03:01:44.353Z,9.81
2019-02-22T03:02:44.221Z,9.81
2019-02-22T03:03:44.154Z,9.87
2019-02-22T03:04:44.078Z,9.91
2019-02-22T03:05:44.009Z,9.71
2019-02-22T03:06:43.941Z,9.69
2019-02-22T03:07:43.865Z,9.60
2019-02-22T03:08:43.787Z,9.65
2019-02-22T03:09:43.709Z,9.71
2019-02-22T03:10:43.656Z,9.75
2019-02-22T03:11:43.571Z,9.66
2019-02-22T03:12:43.530Z,9.81
2019-02-22T03:13:43.450Z,9.69
2019-02-22T03:14:43.350Z,9.71
2019-02-22T03:15:43.260Z,9.79
2019-02-22T03:16:43.198Z,9.78
2019-02-22T03:17:43.124Z,9.75
2019-02-22T03:18:43.038Z,9.71
2019-02-22T03:19:42.965Z,9.69
2019-02-22T03:20:42.891Z,9.66
2019-02-22T03:21:42.811Z,9.68
2019-02-22T03:22:42.752Z,9.75
2019-02-22T03:23:42.677Z,9.60
2019-02-22T03:24:42.591Z,9.61
2019-02-22T03:25:42.517Z,9.61
2019-02-22T03:26:42.450Z,9.58
2019-02-22T03:27:42.390Z,9.60
2019-02-22T03:28:42.312Z,9.64
2019-02-22T03:29:42.230Z,9.43
2019-02-22T03:30:42.149Z,9.56
2019-02-22T03:31:42.082Z,9.36
2019-02-22T03:32:42.005Z,9.31
2019-02-22T03:33:42.106Z,9.36
2019-02-22T03:34:41.857Z,9.42
2019-02-22T03:35:41.791Z,9.43
2019-02-22T03:36:41.713Z,9.50
2019-02-22T03:37:41.634Z,9.50
2019-02-22T03:38:41.572Z,9.50
2019-02-22T03:39:41.478Z,9.46
2019-02-22T03:40:41.418Z,9.47
2019-02-22T03:41:41.336Z,9.58
2019-02-22T03:42:41.252Z,9.48
2019-02-22T03:43:41.179Z,9.56
2019-02-22T03:44:41.129Z,9.38
2019-02-22T03:45:41.036Z,9.47
2019-02-22T03:46:40.986Z,9.51
2019-02-22T03:47:40.897Z,9.39
2019-02-22T03:48:40.803Z,9.47
2019-02-22T03:49:40.731Z,9.46
2019-02-22T03:50:40.675Z,9.38
2019-02-22T03:51:40.593Z,9.36
2019-02-22T03:52:40.520Z,9.29
2019-02-22T03:53:40.445Z,9.28
2019-02-22T03:54:40.359Z,9.20
2019-02-22T03:55:40.285Z,9.18
2019-02-22T03:56:40.231Z,9.23
2019-02-22T03:57:40.146Z,9.23
2019-02-22T03:58:40.064Z,9.40
2019-02-22T03:59:40.003Z,9.42
2019-02-22T04:00:39.909Z,9.38
2019-02-22T04:01:39.851Z,9.38
2019-02-22T04:02:39.772Z,9.50
2019-02-22T04:03:39.728Z,9.48
2019-02-22T04:04:39.623Z,9.57
2019-02-22T04:05:39.547Z,9.66
2019-02-22T04:06:39.498Z,9.61
2019-02-22T04:07:39.388Z,9.58
2019-02-22T04:08:39.327Z,9.46
2019-02-22T04:09:39.257Z,9.48
2019-02-22T04:10:39.180Z,9.26
2019-02-22T04:11:45.651Z,9.32
2019-02-22T04:12:39.016Z,9.39
2019-02-22T04:13:38.945Z,9.50
2019-02-22T04:14:38.872Z,9.46
2019-02-22T04:15:38.807Z,9.23
2019-02-22T04:16:38.733Z,9.24
2019-02-22T04:17:38.654Z,9.31
2019-02-22T04:18:38.571Z,9.32
2019-02-22T04:19:38.495Z,9.32
2019-02-22T04:20:38.423Z,9.43
2019-02-22T04:21:38.345Z,9.47
2019-02-22T04:22:38.280Z,9.50
2019-02-22T04:23:38.210Z,9.32
2019-02-22T04:24:38.132Z,9.21
2019-02-22T04:25:38.063Z,9.26
2019-02-22T04:26:37.997Z,9.26
2019-02-22T04:27:37.898Z,9.43
2019-02-22T04:28:37.834Z,9.39
2019-02-22T04:29:37.761Z,9.39
2019-02-22T04:30:38.118Z,9.38
2019-02-22T04:31:37.602Z,9.39
2019-02-22T04:32:37.524Z,9.42
2019-02-22T04:33:37.445Z,9.39
2019-02-22T04:34:37.394Z,9.40
2019-02-22T04:35:37.319Z,9.38
2019-02-22T04:36:37.237Z,9.26
2019-02-22T04:37:37.165Z,9.35
2019-02-22T04:38:37.083Z,9.29
2019-02-22T04:39:37.005Z,9.28
2019-02-22T04:40:36.938Z,9.28
2019-02-22T04:41:36.855Z,9.28
2019-02-22T04:42:36.796Z,9.24
2019-02-22T04:43:36.733Z,9.26
2019-02-22T04:44:36.630Z,9.24
2019-02-22T04:45:36.558Z,9.18
2019-02-22T04:46:36.496Z,9.23
2019-02-22T04:47:36.421Z,9.11
2019-02-22T04:48:36.345Z,9.05
2019-02-22T04:49:36.282Z,9.11
2019-02-22T04:50:36.184Z,9.08
2019-02-22T04:51:36.107Z,9.13
2019-02-22T04:52:36.061Z,9.14
2019-02-22T04:53:35.969Z,9.13
2019-02-22T04:54:35.886Z,9.15
2019-02-22T04:55:35.809Z,9.14
2019-02-22T04:56:35.729Z,9.18
2019-02-22T04:57:35.701Z,9.29
2019-02-22T04:58:35.601Z,9.29
2019-02-22T04:59:35.530Z,9.26
2019-02-22T05:00:35.434Z,9.38
2019-02-22T05:01:35.358Z,9.51
2019-02-22T05:02:35.295Z,9.46
2019-02-22T05:03:35.227Z,9.60
2019-02-22T05:04:35.153Z,9.57
2019-02-22T05:05:35.071Z,9.75
2019-02-22T05:06:34.985Z,9.79
2019-02-22T05:07:34.909Z,9.74
2019-02-22T05:08:34.839Z,9.68
2019-02-22T05:09:34.761Z,9.61
2019-02-22T05:10:34.696Z,9.64
2019-02-22T05:11:34.621Z,9.56
2019-02-22T05:12:34.556Z,9.46
2019-02-22T05:13:34.473Z,9.54
2019-02-22T05:14:34.394Z,9.21
2019-02-22T05:15:34.313Z,9.04
2019-02-22T05:16:34.259Z,9.02
2019-02-22T05:17:35.796Z,8.99
2019-02-22T05:18:34.092Z,8.89
2019-02-22T05:19:34.015Z,8.91
2019-02-22T05:20:33.941Z,8.84
2019-02-22T05:21:33.871Z,8.91
2019-02-22T05:22:33.811Z,8.84
2019-02-22T05:23:33.729Z,8.87
2019-02-22T05:24:33.655Z,8.86
2019-02-22T05:25:33.581Z,8.74
2019-02-22T05:26:33.495Z,8.53
2019-02-22T05:27:33.424Z,8.61
2019-02-22T05:28:33.343Z,8.56
2019-02-22T05:29:33.265Z,8.66
2019-02-22T05:30:33.692Z,8.50
2019-02-22T05:31:33.129Z,8.47
2019-02-22T05:32:33.040Z,8.44
2019-02-22T05:33:32.965Z,8.52
2019-02-22T05:34:32.908Z,8.58
2019-02-22T05:35:32.828Z,8.65
2019-02-22T05:36:32.802Z,8.53
2019-02-22T05:37:32.676Z,8.55
2019-02-22T05:38:32.643Z,8.66
2019-02-22T05:39:32.515Z,8.80
2019-02-22T05:40:32.440Z,8.80
2019-02-22T05:41:32.363Z,8.80
2019-02-22T05:42:32.299Z,8.87
2019-02-22T05:43:32.228Z,8.83
2019-02-22T05:44:32.148Z,9.02
2019-02-22T05:45:32.073Z,8.96
2019-02-22T05:46:31.989Z,8.94
2019-02-22T05:47:31.913Z,8.84
2019-02-22T05:48:31.852Z,8.83
2019-02-22T05:49:31.772Z,8.71
2019-02-22T05:50:31.687Z,8.70
2019-02-22T05:51:31.607Z,8.77
2019-02-22T05:52:31.538Z,8.81
2019-02-22T05:53:31.457Z,8.71
2019-02-22T05:54:31.435Z,8.74
2019-02-22T05:55:31.323Z,8.73
2019-02-22T05:56:31.233Z,8.59
2019-02-22T05:57:31.161Z,8.56
2019-02-22T05:58:31.094Z,8.62
2019-02-22T05:59:31.022Z,8.68
2019-02-22T06:00:30.946Z,8.73
2019-02-22T06:01:30.872Z,8.77
2019-02-22T06:02:33.615Z,8.71
2019-02-22T06:03:30.718Z,8.66
2019-02-22T06:04:30.653Z,8.70
2019-02-22T06:05:30.577Z,8.80
2019-02-22T06:06:30.485Z,8.66
2019-02-22T06:07:30.404Z,8.66
2019-02-22T06:08:30.407Z,8.73
2019-02-22T06:09:30.263Z,8.70
2019-02-22T06:10:30.230Z,8.76
2019-02-22T06:11:30.115Z,8.56
2019-02-22T06:12:34.489Z,8.50
2019-02-22T06:13:29.970Z,8.45
2019-02-22T06:14:29.913Z,8.50
2019-02-22T06:15:31.477Z,8.19
2019-02-22T06:16:29.732Z,8.25
2019-02-22T06:17:29.653Z,8.07
2019-02-22T06:18:29.595Z,7.92
2019-02-22T06:19:29.524Z,7.93
2019-02-22T06:20:29.429Z,7.93
2019-02-22T06:21:29.357Z,8.10
2019-02-22T06:22:30.073Z,8.15
2019-02-22T06:23:29.218Z,8.15
2019-02-22T06:24:29.134Z,8.28
2019-02-22T06:25:29.078Z,8.29
2019-02-22T06:26:30.444Z,8.48
2019-02-22T06:27:28.898Z,8.53
2019-02-22T06:28:28.817Z,8.48
2019-02-22T06:29:28.749Z,8.58
2019-02-22T06:30:28.683Z,8.70
2019-02-22T06:31:28.606Z,8.66
2019-02-22T06:32:28.525Z,8.65
2019-02-22T06:33:28.469Z,8.74
2019-02-22T06:34:28.365Z,8.70
2019-02-22T06:35:28.291Z,8.94
2019-02-22T06:36:28.234Z,8.80
2019-02-22T06:37:28.151Z,8.94
2019-02-22T06:38:28.064Z,8.94
2019-02-22T06:39:27.988Z,8.81
2019-02-22T06:40:27.921Z,8.81
2019-02-22T06:41:27.843Z,8.91
2019-02-22T06:42:27.770Z,8.91
2019-02-22T06:43:27.700Z,8.79
2019-02-22T06:44:27.621Z,8.86
2019-02-22T06:45:27.550Z,8.99
2019-02-22T06:46:27.473Z,9.10
2019-02-22T06:47:27.393Z,9.14
2019-02-22T06:48:27.313Z,9.15
2019-02-22T06:49:27.248Z,9.24
2019-02-22T06:50:33.613Z,9.28
2019-02-22T06:51:27.096Z,9.29
2019-02-22T06:52:29.647Z,9.21
2019-02-22T06:53:26.933Z,9.29
2019-02-22T06:54:26.882Z,9.24
2019-02-22T06:55:26.801Z,9.23
2019-02-22T06:56:26.723Z,9.01
2019-02-22T06:57:26.647Z,8.89
2019-02-22T06:58:26.559Z,8.83
2019-02-22T06:59:26.492Z,8.76
2019-02-22T07:00:26.425Z,8.83
2019-02-22T07:01:26.349Z,8.87
2019-02-22T07:02:26.260Z,8.77
2019-02-22T07:03:26.191Z,8.77
2019-02-22T07:04:26.111Z,8.81
2019-02-22T07:05:26.037Z,9.08
2019-02-22T07:06:25.973Z,8.98
2019-02-22T07:07:25.899Z,9.08
2019-02-22T07:08:25.811Z,9.21
2019-02-22T07:09:25.741Z,9.15
2019-02-22T07:10:25.677Z,9.24
2019-02-22T07:11:25.610Z,9.24
2019-02-22T07:12:25.526Z,9.43
2019-02-22T07:13:25.455Z,9.33
2019-02-22T07:14:25.366Z,9.42
2019-02-22T07:15:25.290Z,9.40
2019-02-22T07:16:25.211Z,9.38
2019-02-22T07:17:25.141Z,9.50
2019-02-22T07:18:25.077Z,9.38
2019-02-22T07:19:25.002Z,9.38
2019-02-22T07:20:24.926Z,9.46
2019-02-22T07:21:24.852Z,9.48
2019-02-22T07:22:24.769Z,9.46
2019-02-22T07:23:24.697Z,9.53
2019-02-22T07:24:24.630Z,9.47
2019-02-22T07:25:24.557Z,9.53
2019-02-22T07:26:24.475Z,9.57
2019-02-22T07:27:24.394Z,9.47
2019-02-22T07:28:24.322Z,9.39
2019-02-22T07:29:24.245Z,9.38
2019-02-22T07:30:24.181Z,9.47
2019-02-22T07:31:24.109Z,9.47
2019-02-22T07:32:24.019Z,9.57
2019-02-22T07:33:23.957Z,9.58
2019-02-22T07:34:23.882Z,9.69
2019-02-22T07:35:23.813Z,9.78
2019-02-22T07:36:23.739Z,9.87
2019-02-22T07:37:23.668Z,9.89
2019-02-22T07:38:23.578Z,9.89
2019-02-22T07:39:27.957Z,9.86
2019-02-22T07:40:23.487Z,9.83
2019-02-22T07:41:23.369Z,9.90
2019-02-22T07:42:23.286Z,9.86
2019-02-22T07:43:23.208Z,9.84
2019-02-22T07:44:23.137Z,9.74
2019-02-22T07:45:23.064Z,9.69
2019-02-22T07:46:23.000Z,9.56
2019-02-22T07:47:22.922Z,9.46
2019-02-22T07:48:22.912Z,9.48
2019-02-22T07:49:22.776Z,9.38
2019-02-22T07:50:22.697Z,9.36
2019-02-22T07:51:22.619Z,9.43
2019-02-22T07:52:22.548Z,9.42
2019-02-22T07:53:22.470Z,9.53
2019-02-22T07:54:22.407Z,9.56
2019-02-22T07:55:22.333Z,9.56
2019-02-22T07:56:22.251Z,9.50
2019-02-22T07:57:22.176Z,9.47
2019-02-22T07:58:22.132Z,9.46
2019-02-22T07:59:22.043Z,9.50
2019-02-22T08:00:21.969Z,9.65
2019-02-22T08:01:21.896Z,9.58
2019-02-22T08:02:21.807Z,9.54
2019-02-22T08:03:21.733Z,9.60
2019-02-22T08:04:21.672Z,9.53
2019-02-22T08:05:21.602Z,9.31
2019-02-22T08:06:21.512Z,9.28
2019-02-22T08:07:21.437Z,9.29
2019-02-22T08:08:21.364Z,9.33
2019-02-22T08:09:21.290Z,9.21
2019-02-22T08:10:21.224Z,8.96
2019-02-22T08:11:21.156Z,9.10
2019-02-22T08:12:21.071Z,9.24
2019-02-22T08:13:21.008Z,9.31
2019-02-22T08:14:20.938Z,9.29
2019-02-22T08:15:20.869Z,9.46
2019-02-22T08:16:20.789Z,9.51
2019-02-22T08:17:20.713Z,9.21
2019-02-22T08:18:20.627Z,9.24
2019-02-22T08:19:20.556Z,8.91
2019-02-22T08:20:20.488Z,8.87
2019-02-22T08:21:20.408Z,8.96
2019-02-22T08:22:20.833Z,9.13
2019-02-22T08:23:20.274Z,9.13
2019-02-22T08:24:20.199Z,9.05
2019-02-22T08:25:20.121Z,9.24
2019-02-22T08:26:20.039Z,9.23
2019-02-22T08:27:19.967Z,9.31
2019-02-22T08:28:19.904Z,8.98
2019-02-22T08:29:19.839Z,8.77
2019-02-22T08:30:19.747Z,8.56
2019-02-22T08:31:19.669Z,8.66
2019-02-22T08:32:19.596Z,8.76
2019-02-22T08:33:19.525Z,8.71
2019-02-22T08:34:19.465Z,8.68
2019-02-22T08:35:19.397Z,8.71
2019-02-22T08:36:19.317Z,8.76
2019-02-22T08:37:19.248Z,8.89
2019-02-22T08:38:19.159Z,8.94
2019-02-22T08:39:19.089Z,8.95
2019-02-22T08:40:19.010Z,9.13
2019-02-22T08:41:18.934Z,9.24
2019-02-22T08:42:18.879Z,9.39
2019-02-22T08:43:18.806Z,9.54
2019-02-22T08:44:18.733Z,9.61
2019-02-22T08:45:18.642Z,9.83
2019-02-22T08:46:18.582Z,9.93
2019-02-22T08:47:18.516Z,10.02
2019-02-22T08:48:18.434Z,10.15
2019-02-22T08:49:18.361Z,10.23
2019-02-22T08:50:18.276Z,10.34
2019-02-22T08:51:18.243Z,10.40
2019-02-22T08:52:18.133Z,10.38
2019-02-22T08:53:18.058Z,10.40
2019-02-22T08:54:17.996Z,10.47
2019-02-22T08:55:17.924Z,10.47
2019-02-22T08:56:17.854Z,10.51
2019-02-22T08:57:17.778Z,10.60
2019-02-22T08:58:17.693Z,10.68
2019-02-22T08:59:17.623Z,10.86
2019-02-22T09:00:17.560Z,10.88
2019-02-22T09:01:17.501Z,10.94
2019-02-22T09:02:17.404Z,10.97
2019-02-22T09:03:17.333Z,10.96
2019-02-22T09:04:17.257Z,11.07
2019-02-22T09:05:17.183Z,11.21
2019-02-22T09:06:17.126Z,11.24
2019-02-22T09:07:17.055Z,11.21
2019-02-22T09:08:16.965Z,11.24
2019-02-22T09:09:16.897Z,11.35
2019-02-22T09:10:16.831Z,11.35
2019-02-22T09:11:16.767Z,11.32
2019-02-22T09:12:16.723Z,11.46
2019-02-22T09:13:16.622Z,11.44
2019-02-22T09:14:16.536Z,11.60
2019-02-22T09:15:16.467Z,11.64
2019-02-22T09:16:16.404Z,11.57
2019-02-22T09:17:16.334Z,11.64
2019-02-22T09:18:16.252Z,11.43
2019-02-22T09:19:16.176Z,11.21
2019-02-22T09:20:16.112Z,11.37
2019-02-22T09:21:16.037Z,11.44
2019-02-22T09:22:22.781Z,11.44
2019-02-22T09:23:15.910Z,11.47
2019-02-22T09:24:15.834Z,11.54
2019-02-22T09:25:15.857Z,11.70
2019-02-22T09:26:15.677Z,11.90
2019-02-22T09:27:15.609Z,11.90
2019-02-22T09:28:15.541Z,11.96
2019-02-22T09:29:15.467Z,12.09
2019-02-22T09:30:15.411Z,12.21
2019-02-22T09:31:15.339Z,12.35
2019-02-22T09:32:15.254Z,12.38
2019-02-22T09:33:15.195Z,12.39
2019-02-22T09:34:15.126Z,12.38
2019-02-22T09:35:15.052Z,12.35
2019-02-22T09:36:14.982Z,12.42
2019-02-22T09:37:14.911Z,12.45
2019-02-22T09:38:14.829Z,12.45
2019-02-22T09:39:14.755Z,12.56
2019-02-22T09:40:15.032Z,12.52
2019-02-22T09:41:14.626Z,12.57
2019-02-22T09:42:14.562Z,12.56
2019-02-22T09:43:14.486Z,12.53
2019-02-22T09:44:14.420Z,12.67
2019-02-22T09:45:14.347Z,12.52
2019-02-22T09:46:14.268Z,12.49
2019-02-22T09:47:14.191Z,12.57
2019-02-22T09:48:14.161Z,12.56
2019-02-22T09:49:14.066Z,12.67
2019-02-22T09:50:13.982Z,12.75
2019-02-22T09:51:13.918Z,12.64
2019-02-22T09:52:13.845Z,12.62
2019-02-22T09:53:13.776Z,12.65
2019-02-22T09:54:13.709Z,12.82
2019-02-22T09:55:13.699Z,12.79
2019-02-22T09:56:13.571Z,12.86
2019-02-22T09:57:13.506Z,12.89
2019-02-22T09:58:13.431Z,12.85
2019-02-22T09:59:13.349Z,12.89
2019-02-22T10:00:13.295Z,12.77
2019-02-22T10:01:13.216Z,12.83
2019-02-22T10:02:13.152Z,12.86
2019-02-22T10:03:13.085Z,12.92
2019-02-22T10:04:13.001Z,12.89
2019-02-22T10:05:12.933Z,13.00
2019-02-22T10:06:12.872Z,13.12
2019-02-22T10:07:12.805Z,13.25
2019-02-22T10:08:12.736Z,13.23
2019-02-22T10:09:12.679Z,13.22
2019-02-22T10:10:12.585Z,13.32
2019-02-22T10:11:12.516Z,13.32
2019-02-22T10:12:12.456Z,13.32
2019-02-22T10:13:12.387Z,13.20
2019-02-22T10:14:12.310Z,13.26
2019-02-22T10:15:12.239Z,13.33
2019-02-22T10:16:12.168Z,13.49
2019-02-22T10:17:12.095Z,13.63
2019-02-22T10:18:12.049Z,13.60
2019-02-22T10:19:11.970Z,13.84
2019-02-22T10:20:11.887Z,13.71
2019-02-22T10:21:11.823Z,13.71
2019-02-22T10:22:11.761Z,13.75
2019-02-22T10:23:11.690Z,13.71
2019-02-22T10:24:11.623Z,13.79
2019-02-22T10:25:11.549Z,13.70
2019-02-22T10:26:11.471Z,13.84
2019-02-22T10:27:12.234Z,13.79
2019-02-22T10:28:17.600Z,13.82
2019-02-22T10:29:11.264Z,13.82
2019-02-22T10:30:11.205Z,13.81
2019-02-22T10:31:11.137Z,13.95
2019-02-22T10:32:11.070Z,13.79
2019-02-22T10:33:10.999Z,13.85
2019-02-22T10:34:10.915Z,13.75
2019-02-22T10:35:10.853Z,13.85
2019-02-22T10:36:10.791Z,14.02
2019-02-22T10:37:10.737Z,14.07
2019-02-22T10:38:10.646Z,14.07
2019-02-22T10:39:10.571Z,14.10
2019-02-22T10:40:10.533Z,14.18
2019-02-22T10:41:10.435Z,14.17
2019-02-22T10:42:10.378Z,14.20
2019-02-22T10:43:10.313Z,13.99
2019-02-22T10:44:17.383Z,13.91
2019-02-22T10:45:10.172Z,13.89
2019-02-22T10:46:10.093Z,14.07
2019-02-22T10:47:10.022Z,14.22
2019-02-22T10:48:09.952Z,14.20
2019-02-22T10:49:09.885Z,14.25
2019-02-22T10:50:09.831Z,14.21
2019-02-22T10:51:09.758Z,14.32
2019-02-22T10:52:09.679Z,14.33
2019-02-22T10:53:09.608Z,14.37
2019-02-22T10:54:09.551Z,14.40
2019-02-22T10:55:09.488Z,14.47
2019-02-22T10:56:09.415Z,14.50
2019-02-22T10:57:09.341Z,14.42
2019-02-22T10:58:09.262Z,14.62
2019-02-22T10:59:09.200Z,14.50
2019-02-22T11:00:09.126Z,14.58
2019-02-22T11:01:09.058Z,14.47
2019-02-22T11:02:08.999Z,14.33
2019-02-22T11:03:08.943Z,14.35
2019-02-22T11:04:08.869Z,14.36
2019-02-22T11:05:08.799Z,14.32
2019-02-22T11:06:08.716Z,14.33
2019-02-22T11:07:08.645Z,14.40
2019-02-22T11:08:08.592Z,14.40
2019-02-22T11:09:08.516Z,14.42
2019-02-22T11:10:08.438Z,14.51
2019-02-22T11:11:08.371Z,14.40
2019-02-22T11:12:08.303Z,14.51
2019-02-22T11:13:08.248Z,14.52
2019-02-22T11:14:08.174Z,14.50
2019-02-22T11:15:08.115Z,14.39
2019-02-22T11:16:08.029Z,14.35
2019-02-22T11:17:07.974Z,14.40
2019-02-22T11:18:07.903Z,14.52
2019-02-22T11:19:07.835Z,14.55
2019-02-22T11:20:07.765Z,14.65
2019-02-22T11:21:07.683Z,14.62
2019-02-22T11:22:07.613Z,14.75
2019-02-22T11:23:07.565Z,14.77
2019-02-22T11:24:07.492Z,14.81
2019-02-22T11:25:07.412Z,14.86
2019-02-22T11:26:07.343Z,14.86
2019-02-22T11:27:07.271Z,14.89
2019-02-22T11:28:07.203Z,14.99
2019-02-22T11:29:07.156Z,14.92
2019-02-22T11:30:07.083Z,14.94
2019-02-22T11:31:07.010Z,15.07
2019-02-22T11:32:06.942Z,15.14
2019-02-22T11:33:06.871Z,15.28
2019-02-22T11:34:06.804Z,15.28
2019-02-22T11:35:06.724Z,15.19
2019-02-22T11:36:06.649Z,15.31
2019-02-22T11:37:06.598Z,15.29
2019-02-22T11:38:06.529Z,15.17
2019-02-22T11:39:06.475Z,15.20
2019-02-22T11:40:06.382Z,15.14
2019-02-22T11:41:06.328Z,15.16
2019-02-22T11:42:06.343Z,15.21
2019-02-22T11:43:06.192Z,15.25
2019-02-22T11:44:06.120Z,15.29
2019-02-22T11:45:06.032Z,15.35
2019-02-22T11:46:05.964Z,15.34
2019-02-22T11:47:05.907Z,15.35
2019-02-22T11:48:09.256Z,15.35
2019-02-22T11:49:05.770Z,15.29
2019-02-22T11:50:05.693Z,15.35
2019-02-22T11:51:05.626Z,15.43
2019-02-22T11:52:05.558Z,15.39
2019-02-22T11:53:05.495Z,15.36
2019-02-22T11:54:05.432Z,15.51
2019-02-22T11:55:05.371Z,15.39
2019-02-22T11:56:05.286Z,15.50
2019-02-22T11:57:05.230Z,15.59
2019-02-22T11:58:05.158Z,15.60
2019-02-22T11:59:05.096Z,15.64
2019-02-22T12:00:05.029Z,15.59
2019-02-22T12:01:04.940Z,15.56
2019-02-22T12:02:04.872Z,15.64
2019-02-22T12:03:21.016Z,15.60
2019-02-22T12:04:04.752Z,15.65
2019-02-22T12:05:04.683Z,15.69
2019-02-22T12:06:04.636Z,15.69
2019-02-22T12:07:04.547Z,15.71
2019-02-22T12:08:04.474Z,15.78
2019-02-22T12:09:04.398Z,15.89
2019-02-22T12:10:04.329Z,15.75
2019-02-22T12:11:04.275Z,15.80
2019-02-22T12:12:04.206Z,15.90
2019-02-22T12:13:04.121Z,15.87
2019-02-22T12:14:04.065Z,15.94
2019-02-22T12:15:03.999Z,15.96
2019-02-22T12:16:03.914Z,15.97
2019-02-22T12:17:03.869Z,16.01
2019-02-22T12:18:03.791Z,16.00
2019-02-22T12:19:03.717Z,15.94
2019-02-22T12:20:03.648Z,15.97
2019-02-22T12:21:03.594Z,15.97
2019-02-22T12:22:03.521Z,15.97
2019-02-22T12:23:03.455Z,15.97
2019-02-22T12:24:03.387Z,16.02
2019-02-22T12:25:03.303Z,16.04
2019-02-22T12:26:03.236Z,16.08
2019-02-22T12:27:03.182Z,15.96
2019-02-22T12:28:03.113Z,16.04
2019-02-22T12:29:03.035Z,16.07
2019-02-22T12:30:02.960Z,16.01
2019-02-22T12:31:02.900Z,16.02
2019-02-22T12:32:02.831Z,16.01
2019-02-22T12:33:02.779Z,16.01
2019-02-22T12:34:02.700Z,16.07
2019-02-22T12:35:02.637Z,16.07
2019-02-22T12:36:02.573Z,16.07
2019-02-22T12:37:02.490Z,16.04
2019-02-22T12:38:02.419Z,16.05
2019-02-22T12:39:02.364Z,16.09
2019-02-22T12:40:02.281Z,16.12
2019-02-22T12:41:02.243Z,16.07
2019-02-22T12:42:02.158Z,16.05
2019-02-22T12:43:02.082Z,16.05
2019-02-22T12:44:02.019Z,16.14
2019-02-22T12:45:03.259Z,16.12
2019-02-22T12:46:01.887Z,16.12
2019-02-22T12:47:01.821Z,16.15
2019-02-22T12:48:01.788Z,16.17
2019-02-22T12:49:01.671Z,16.12
2019-02-22T12:50:01.605Z,16.20
2019-02-22T12:51:01.534Z,16.17
2019-02-22T12:52:01.467Z,16.15
2019-02-22T12:53:01.410Z,16.23
2019-02-22T12:54:01.339Z,16.21
2019-02-22T12:55:01.278Z,16.20
2019-02-22T12:56:01.206Z,16.24
2019-02-22T12:57:01.162Z,16.31
2019-02-22T12:58:01.057Z,16.24
2019-02-22T12:59:00.999Z,16.28
2019-02-22T13:00:00.929Z,16.25
2019-02-22T13:01:00.851Z,16.33
2019-02-22T13:02:00.782Z,16.21
2019-02-22T13:03:02.277Z,16.25
2019-02-22T13:04:00.654Z,16.33